createdAt,value
2022-10-21T00:00:15.470Z,7.89
2022-10-21T00:03:21.259Z,7.85
2022-10-21T00:06:25.598Z,7.93
2022-10-21T00:09:29.851Z,8.02
2022-10-21T00:12:35.005Z,8.02
2022-10-21T00:15:40.026Z,8.15
2022-10-21T00:18:45.891Z,8.04
2022-10-21T00:21:50.077Z,8.02
2022-10-21T00:24:54.169Z,8.14
2022-10-21T00:27:58.853Z,8.39
2022-10-21T00:31:03.826Z,8.63
2022-10-21T00:34:08.163Z,8.38
2022-10-21T00:37:12.978Z,8.52
2022-10-21T00:40:17.446Z,8.62
2022-10-21T00:43:22.264Z,8.72
2022-10-21T00:46:43.390Z,8.73
2022-10-21T00:49:57.957Z,8.85
2022-10-21T00:53:04.299Z,8.78
2022-10-21T00:56:15.564Z,8.83
2022-10-21T00:59:22.517Z,8.69
2022-10-21T01:02:27.433Z,8.71
2022-10-21T01:05:32.386Z,8.95
2022-10-21T01:08:37.195Z,8.94
2022-10-21T01:11:46.623Z,9.04
2022-10-21T01:15:08.973Z,9.18
2022-10-21T01:18:20.002Z,9.11
2022-10-21T01:21:38.610Z,9.10
2022-10-21T01:24:49.524Z,9.27
2022-10-21T01:28:09.225Z,9.32
2022-10-21T01:31:29.086Z,9.74
2022-10-21T01:34:55.919Z,9.96
2022-10-21T01:38:35.222Z,10.18
2022-10-21T01:42:00.471Z,10.00
2022-10-21T01:45:35.215Z,9.98
2022-10-21T01:48:46.251Z,10.32
2022-10-21T01:51:52.462Z,10.38
2022-10-21T01:55:05.708Z,10.33
2022-10-21T01:58:32.661Z,10.35
2022-10-21T02:01:40.253Z,10.21
2022-10-21T02:04:47.229Z,10.26
2022-10-21T02:07:51.666Z,10.28
2022-10-21T02:10:59.590Z,10.13
2022-10-21T02:14:16.847Z,9.97
2022-10-21T02:17:23.481Z,10.02
2022-10-21T02:20:32.627Z,10.17
2022-10-21T02:23:54.418Z,10.30
2022-10-21T02:26:59.041Z,10.16
2022-10-21T02:30:04.568Z,10.46
2022-10-21T02:33:12.245Z,10.16
2022-10-21T02:36:27.789Z,10.13
2022-10-21T02:39:49.300Z,10.14
2022-10-21T02:43:01.212Z,10.23
2022-10-21T02:46:13.889Z,10.43
2022-10-21T02:49:18.484Z,10.44
2022-10-21T02:52:23.094Z,10.44
2022-10-21T02:55:27.665Z,10.37
2022-10-21T02:58:32.421Z,10.37
2022-10-21T03:01:36.954Z,10.43
2022-10-21T03:04:41.373Z,10.26
2022-10-21T03:07:45.856Z,10.39
2022-10-21T03:10:53.164Z,10.70
2022-10-21T03:13:58.155Z,10.70
2022-10-21T03:17:02.456Z,10.94
2022-10-21T03:20:07.184Z,11.08
2022-10-21T03:23:11.428Z,11.14
2022-10-21T03:26:15.844Z,11.07
2022-10-21T03:29:20.409Z,10.95
2022-10-21T03:32:24.645Z,10.97
2022-10-21T03:35:29.438Z,11.04
2022-10-21T03:38:33.628Z,11.11
2022-10-21T03:41:37.704Z,11.35
2022-10-21T03:44:42.292Z,11.24
2022-10-21T03:47:48.391Z,11.08
2022-10-21T03:50:52.807Z,11.14
2022-10-21T03:53:57.132Z,10.91
2022-10-21T03:57:01.361Z,10.99
2022-10-21T04:00:06.914Z,11.19
2022-10-21T04:03:16.391Z,11.32
2022-10-21T04:06:20.794Z,11.27
2022-10-21T04:09:25.178Z,11.44
2022-10-21T04:12:29.423Z,11.54
2022-10-21T04:15:33.639Z,11.52
2022-10-21T04:18:38.174Z,11.57
2022-10-21T04:21:42.645Z,11.41
2022-10-21T04:24:47.111Z,11.41
2022-10-21T04:27:51.278Z,11.19
2022-10-21T04:30:55.514Z,11.12
2022-10-21T04:34:00.298Z,11.12
2022-10-21T04:37:05.318Z,10.98
2022-10-21T04:40:10.786Z,11.07
2022-10-21T04:43:16.008Z,11.15
2022-10-21T04:46:21.721Z,10.97
2022-10-21T04:49:25.690Z,10.92
2022-10-21T04:52:30.316Z,10.99
2022-10-21T04:55:35.154Z,10.89
2022-10-21T04:58:39.429Z,10.85
2022-10-21T05:01:44.000Z,10.74
2022-10-21T05:04:48.230Z,10.86
2022-10-21T05:07:52.724Z,10.78
2022-10-21T05:11:04.528Z,10.41
2022-10-21T05:14:08.913Z,10.70
2022-10-21T05:17:13.381Z,10.78
2022-10-21T05:20:18.318Z,10.67
2022-10-21T05:23:23.299Z,10.51
2022-10-21T05:26:29.874Z,10.11
2022-10-21T05:29:34.529Z,9.67
2022-10-21T05:32:40.092Z,9.55
2022-10-21T05:35:44.438Z,9.28
2022-10-21T05:38:49.019Z,9.19
2022-10-21T05:41:53.190Z,9.22
2022-10-21T05:44:57.882Z,9.16
2022-10-21T05:48:02.588Z,9.23
2022-10-21T05:51:09.275Z,9.30
2022-10-21T05:54:13.687Z,9.00
2022-10-21T05:57:18.312Z,9.14
2022-10-21T06:00:22.567Z,9.35
2022-10-21T06:03:31.076Z,8.93
2022-10-21T06:06:35.553Z,8.64
2022-10-21T06:09:40.200Z,8.64
2022-10-21T06:12:45.458Z,9.04
2022-10-21T06:15:51.127Z,9.03
2022-10-21T06:18:55.867Z,8.45
2022-10-21T06:22:00.437Z,8.20
2022-10-21T06:25:05.245Z,8.22
2022-10-21T06:28:09.736Z,8.16
2022-10-21T06:31:17.022Z,8.28
2022-10-21T06:34:21.631Z,8.15
2022-10-21T06:37:26.299Z,8.58
2022-10-21T06:40:30.704Z,8.44
2022-10-21T06:43:35.570Z,8.58
2022-10-21T06:46:40.087Z,8.33
2022-10-21T06:49:44.678Z,8.03
2022-10-21T06:52:52.122Z,8.00
2022-10-21T06:56:11.041Z,8.45
2022-10-21T06:59:15.607Z,8.39
2022-10-21T07:02:20.349Z,8.29
2022-10-21T07:05:24.721Z,8.10
2022-10-21T07:08:46.337Z,8.18
2022-10-21T07:11:51.645Z,8.11
2022-10-21T07:14:56.426Z,8.21
2022-10-21T07:18:01.909Z,8.28
2022-10-21T07:21:08.285Z,8.11
2022-10-21T07:24:16.289Z,7.89
2022-10-21T07:27:21.902Z,7.77
2022-10-21T07:30:26.232Z,7.66
2022-10-21T07:33:30.679Z,7.79
2022-10-21T07:36:38.255Z,7.90
2022-10-21T07:39:42.493Z,8.14
2022-10-21T07:42:47.019Z,8.31
2022-10-21T07:45:51.274Z,8.25
2022-10-21T07:48:57.230Z,8.38
2022-10-21T07:52:01.819Z,8.45
2022-10-21T07:55:06.478Z,8.31
2022-10-21T07:58:11.329Z,8.29
2022-10-21T08:01:16.953Z,8.34
2022-10-21T08:04:23.028Z,8.25
2022-10-21T08:07:27.623Z,8.48
2022-10-21T08:10:33.178Z,8.46
2022-10-21T08:13:41.588Z,8.18
2022-10-21T08:16:46.191Z,8.24
2022-10-21T08:19:51.248Z,8.26
2022-10-21T08:22:55.646Z,7.94
2022-10-21T08:26:04.337Z,7.80
2022-10-21T08:29:09.294Z,7.80
2022-10-21T08:32:13.736Z,7.91
2022-10-21T08:35:18.657Z,7.94
2022-10-21T08:38:23.320Z,7.63
2022-10-21T08:41:31.144Z,8.02
2022-10-21T08:45:00.857Z,8.18
2022-10-21T08:48:14.141Z,8.13
2022-10-21T08:51:39.074Z,8.14
2022-10-21T08:54:52.203Z,8.23
2022-10-21T08:57:56.698Z,8.26
2022-10-21T09:01:32.621Z,8.36
2022-10-21T09:04:53.594Z,8.13
2022-10-21T09:08:27.996Z,8.03
2022-10-21T09:11:48.601Z,8.23
2022-10-21T09:15:17.140Z,8.22
2022-10-21T09:18:39.742Z,8.22
2022-10-21T09:22:29.996Z,7.85
2022-10-21T09:25:36.160Z,8.05
2022-10-21T09:28:41.058Z,8.16
2022-10-21T09:31:48.776Z,7.80
2022-10-21T09:35:10.946Z,7.90
2022-10-21T09:38:26.976Z,8.05
2022-10-21T09:41:40.101Z,8.03
2022-10-21T09:44:49.542Z,8.06
2022-10-21T09:48:00.174Z,8.32
2022-10-21T09:51:15.592Z,8.45
2022-10-21T09:54:23.847Z,8.13
2022-10-21T09:57:42.570Z,8.06
2022-10-21T10:00:51.854Z,7.95
2022-10-21T10:03:56.581Z,8.19
2022-10-21T10:07:38.524Z,8.22
2022-10-21T10:10:43.127Z,8.24
2022-10-21T10:13:53.566Z,8.47
2022-10-21T10:17:20.588Z,8.49
2022-10-21T10:20:25.220Z,8.37
2022-10-21T10:23:29.838Z,8.45
2022-10-21T10:26:43.354Z,8.47
2022-10-21T10:30:00.895Z,7.96
2022-10-21T10:33:17.806Z,8.38
2022-10-21T10:36:38.028Z,8.47
2022-10-21T10:39:46.689Z,8.61
2022-10-21T10:43:13.074Z,8.43
2022-10-21T10:46:36.890Z,8.32
2022-10-21T10:49:44.873Z,8.45
2022-10-21T10:52:49.531Z,8.36
2022-10-21T10:56:17.577Z,8.51
2022-10-21T10:59:30.441Z,8.45
2022-10-21T11:02:57.043Z,8.35
2022-10-21T11:06:26.975Z,8.38
2022-10-21T11:09:35.128Z,8.43
2022-10-21T11:12:39.554Z,8.47
2022-10-21T11:15:59.789Z,8.63
2022-10-21T11:19:36.712Z,8.57
2022-10-21T11:23:10.609Z,8.72
2022-10-21T11:26:37.685Z,8.59
2022-10-21T11:30:10.456Z,8.44
2022-10-21T11:33:47.226Z,8.48
2022-10-21T11:37:16.007Z,8.37
2022-10-21T11:40:35.279Z,8.30
2022-10-21T11:43:53.558Z,8.28
2022-10-21T11:47:21.448Z,8.31
2022-10-21T11:50:33.443Z,8.31
2022-10-21T11:53:40.483Z,8.26
2022-10-21T11:57:09.216Z,8.22
2022-10-21T12:00:21.487Z,8.39
2022-10-21T12:03:49.725Z,8.45
2022-10-21T12:07:14.217Z,8.43
2022-10-21T12:10:48.595Z,8.30
2022-10-21T12:14:05.014Z,8.26
2022-10-21T12:17:16.891Z,8.45
2022-10-21T12:20:27.232Z,8.53
2022-10-21T12:23:37.073Z,8.39
2022-10-21T12:26:49.733Z,8.17
2022-10-21T12:30:24.847Z,8.19
2022-10-21T12:33:44.603Z,8.31
2022-10-21T12:36:51.989Z,8.18
2022-10-21T12:40:14.423Z,8.13
2022-10-21T12:43:29.300Z,8.15
2022-10-21T12:46:44.837Z,8.16
2022-10-21T12:50:11.374Z,7.94
2022-10-21T12:53:43.832Z,7.95
2022-10-21T12:57:23.600Z,7.68
2022-10-21T13:00:31.332Z,7.89
2022-10-21T13:03:53.015Z,7.93
2022-10-21T13:06:59.663Z,8.00
2022-10-21T13:10:06.973Z,7.66
2022-10-21T13:13:30.972Z,7.66
2022-10-21T13:16:41.758Z,7.54
2022-10-21T13:19:47.239Z,7.59
2022-10-21T13:23:03.372Z,7.61
2022-10-21T13:26:19.515Z,7.49
2022-10-21T13:29:39.529Z,7.53
2022-10-21T13:32:43.827Z,7.64
2022-10-21T13:35:51.485Z,7.77
2022-10-21T13:38:58.889Z,7.50
2022-10-21T13:42:15.686Z,7.55
2022-10-21T13:45:33.355Z,7.79
2022-10-21T13:48:42.230Z,7.82
2022-10-21T13:51:48.360Z,7.72
2022-10-21T13:55:03.208Z,7.61
2022-10-21T13:58:16.928Z,7.63
2022-10-21T14:01:27.332Z,7.68
2022-10-21T14:04:34.568Z,7.48
2022-10-21T14:07:42.011Z,7.44
2022-10-21T14:10:48.865Z,7.37
2022-10-21T14:13:53.238Z,7.42
2022-10-21T14:17:01.490Z,7.40
2022-10-21T14:20:34.479Z,7.52
2022-10-21T14:23:39.895Z,7.39
2022-10-21T14:26:47.045Z,7.58
2022-10-21T14:29:51.822Z,7.44
2022-10-21T14:33:07.017Z,7.52
2022-10-21T14:36:25.736Z,7.44
2022-10-21T14:39:31.586Z,7.37
2022-10-21T14:42:35.616Z,7.37
2022-10-21T14:45:47.022Z,7.33
2022-10-21T14:49:00.867Z,7.60
2022-10-21T14:52:08.343Z,7.38
2022-10-21T14:55:17.752Z,7.41
2022-10-21T14:58:27.145Z,7.52
2022-10-21T15:01:32.580Z,7.40
2022-10-21T15:04:52.509Z,7.33
2022-10-21T15:08:16.822Z,7.47
2022-10-21T15:11:24.203Z,7.37
2022-10-21T15:14:31.452Z,7.24
2022-10-21T15:17:35.975Z,7.34
2022-10-21T15:20:40.741Z,7.43
2022-10-21T15:23:51.983Z,7.44
2022-10-21T15:27:00.725Z,7.35
2022-10-21T15:30:20.317Z,7.32
2022-10-21T15:33:24.711Z,7.35
2022-10-21T15:36:28.983Z,7.51
2022-10-21T15:39:33.123Z,7.69
2022-10-21T15:42:37.593Z,7.73
2022-10-21T15:45:43.855Z,7.82
2022-10-21T15:48:48.352Z,7.77
2022-10-21T15:51:52.818Z,7.75
2022-10-21T15:54:57.890Z,7.65
2022-10-21T15:58:02.339Z,7.62
2022-10-21T16:01:12.823Z,7.75
2022-10-21T16:04:18.372Z,7.87
2022-10-21T16:07:37.783Z,7.74
2022-10-21T16:10:49.930Z,7.57
2022-10-21T16:13:54.233Z,7.54
2022-10-21T16:17:01.571Z,7.70
2022-10-21T16:20:06.456Z,7.38
2022-10-21T16:23:12.450Z,7.51
2022-10-21T16:26:22.874Z,7.50
2022-10-21T16:29:27.191Z,7.78
2022-10-21T16:32:31.653Z,7.38
2022-10-21T16:35:36.276Z,7.50
2022-10-21T16:38:42.388Z,7.67
2022-10-21T16:41:46.825Z,7.67
2022-10-21T16:44:52.148Z,7.47
2022-10-21T16:48:00.506Z,7.65
2022-10-21T16:51:04.862Z,7.64
2022-10-21T16:54:09.588Z,7.75
2022-10-21T16:57:13.795Z,7.77
2022-10-21T17:00:19.930Z,7.63
2022-10-21T17:03:24.631Z,7.81
2022-10-21T17:06:29.218Z,7.69
2022-10-21T17:09:33.826Z,7.64
2022-10-21T17:12:38.516Z,7.51
2022-10-21T17:15:42.717Z,7.53
2022-10-21T17:18:47.675Z,7.59
2022-10-21T17:21:51.898Z,7.65
2022-10-21T17:24:56.347Z,7.58
2022-10-21T17:28:00.970Z,7.44
2022-10-21T17:31:05.285Z,7.35
2022-10-21T17:34:24.094Z,7.47
2022-10-21T17:37:28.618Z,7.37
2022-10-21T17:40:33.202Z,7.33
2022-10-21T17:43:37.816Z,7.34
2022-10-21T17:46:42.158Z,7.33
2022-10-21T17:49:46.580Z,7.19
2022-10-21T17:52:54.395Z,7.15
2022-10-21T17:56:01.643Z,7.08
2022-10-21T17:59:06.394Z,7.06
2022-10-21T18:02:11.570Z,7.02
2022-10-21T18:08:54.786Z,7.12
2022-10-21T18:12:03.394Z,6.89
2022-10-21T18:15:08.983Z,6.87
2022-10-21T18:18:13.846Z,6.74
2022-10-21T18:21:23.693Z,6.71
2022-10-21T18:24:29.308Z,6.60
2022-10-21T18:27:33.742Z,6.49
2022-10-21T18:30:43.558Z,6.53
2022-10-21T18:33:48.659Z,6.43
2022-10-21T18:40:02.078Z,6.35
2022-10-21T18:43:07.163Z,6.40
2022-10-21T18:46:11.298Z,6.30
2022-10-21T18:49:19.301Z,6.44
2022-10-21T18:52:23.833Z,6.43
2022-10-21T18:55:28.401Z,6.39
2022-10-21T18:58:36.238Z,6.37
2022-10-21T19:01:41.219Z,6.13
2022-10-21T19:04:45.675Z,6.18
2022-10-21T19:07:50.622Z,6.13
2022-10-21T19:10:54.678Z,6.07
2022-10-21T19:13:59.291Z,6.02
2022-10-21T19:17:03.590Z,5.99
2022-10-21T19:20:09.084Z,5.88
2022-10-21T19:23:13.561Z,6.02
2022-10-21T19:26:21.073Z,6.12
2022-10-21T19:29:27.936Z,6.12
2022-10-21T19:32:33.708Z,5.90
2022-10-21T19:35:38.591Z,6.01
2022-10-21T19:38:44.803Z,5.98
2022-10-21T19:41:49.341Z,5.86
2022-10-21T19:44:53.924Z,5.76
2022-10-21T19:47:58.589Z,6.04
2022-10-21T19:51:04.432Z,6.09
2022-10-21T19:54:10.608Z,5.88
2022-10-21T19:57:14.828Z,5.79
2022-10-21T20:00:19.313Z,5.70
2022-10-21T20:03:23.974Z,5.81
2022-10-21T20:06:33.905Z,5.87
2022-10-21T20:09:38.976Z,5.75
2022-10-21T20:12:43.250Z,5.79
2022-10-21T20:15:51.191Z,5.73
2022-10-21T20:18:56.422Z,5.87
2022-10-21T20:22:00.962Z,5.91
2022-10-21T20:25:05.563Z,5.74
2022-10-21T20:28:10.079Z,5.83
2022-10-21T20:31:16.998Z,5.91
2022-10-21T20:34:21.402Z,6.01
2022-10-21T20:37:25.844Z,5.93
2022-10-21T20:40:30.175Z,6.06
2022-10-21T20:43:39.552Z,6.09
2022-10-21T20:46:44.581Z,6.12
2022-10-21T20:49:48.992Z,6.21
2022-10-21T20:52:53.281Z,6.15
2022-10-21T20:55:57.730Z,6.08
2022-10-21T20:59:03.081Z,6.14
2022-10-21T21:02:07.812Z,6.03
2022-10-21T21:05:12.351Z,5.99
2022-10-21T21:08:17.246Z,6.07
2022-10-21T21:11:22.420Z,6.02
2022-10-21T21:14:26.725Z,5.93
2022-10-21T21:17:30.990Z,6.14
2022-10-21T21:20:35.505Z,6.04
2022-10-21T21:23:41.792Z,5.87
2022-10-21T21:26:46.665Z,5.79
2022-10-21T21:29:51.246Z,5.84
2022-10-21T21:32:55.835Z,5.84
2022-10-21T21:36:00.364Z,5.92
2022-10-21T21:39:05.746Z,5.87
2022-10-21T21:46:41.883Z,5.92
2022-10-21T21:49:46.329Z,5.89
2022-10-21T21:52:54.082Z,5.84
2022-10-21T21:56:03.454Z,5.96
2022-10-21T21:59:08.166Z,5.84
2022-10-21T22:02:14.747Z,5.77
2022-10-21T22:05:23.599Z,5.85
2022-10-21T22:08:30.646Z,5.78
2022-10-21T22:11:41.427Z,6.02
2022-10-21T22:14:48.695Z,5.63
2022-10-21T22:17:53.970Z,5.80
2022-10-21T22:21:11.038Z,5.84
2022-10-21T22:24:15.327Z,5.70
2022-10-21T22:27:20.034Z,5.80
2022-10-21T22:30:24.402Z,5.80
2022-10-21T22:33:29.349Z,5.87
2022-10-21T22:36:35.482Z,5.73
2022-10-21T22:39:39.903Z,5.83
2022-10-21T22:45:57.647Z,6.13
2022-10-21T22:49:17.566Z,6.08
2022-10-21T22:52:25.136Z,6.30
2022-10-21T22:55:35.589Z,6.36
2022-10-21T22:58:41.388Z,6.15
2022-10-21T23:01:45.309Z,5.86
2022-10-21T23:04:52.543Z,5.82
2022-10-21T23:07:58.842Z,5.98
2022-10-21T23:11:03.010Z,5.99
2022-10-21T23:14:08.714Z,6.01
2022-10-21T23:17:13.306Z,6.07
2022-10-21T23:20:17.821Z,5.99
2022-10-21T23:23:21.936Z,6.04
2022-10-21T23:26:26.856Z,5.93
2022-10-21T23:29:37.447Z,5.88
2022-10-21T23:32:42.662Z,5.99
2022-10-21T23:35:52.094Z,6.06
2022-10-21T23:38:57.667Z,6.17
2022-10-21T23:42:01.706Z,6.17
2022-10-21T23:45:08.405Z,5.47
2022-10-21T23:48:15.713Z,5.70
2022-10-21T23:51:20.207Z,5.74
2022-10-21T23:54:24.744Z,5.79
2022-10-21T23:57:29.395Z,5.94
